« 趣味的航空路誌改訂情報 2014/2/6 thu | トップページ | 定点 富山空港 2014/2/10 mon »

2014/02/09

定点 富山空港 2014/2/9 sun

昨日は中国勢の健闘が光った富山空港ですが、今日はまだ余波が大きく、朝の一便は欠航。羽田も少しづつ平常運転にもどるべく、がんばっているようだ。

RJNT 090200Z 22005KT 200V260 7000 SHRA FEW006 BKN010 03/00 Q1013

20140209_rjnt_00hl8257

なんか、どこかで見た加工した絵のようだなぁ。

20140209_rjnt_01hl8257

20140209_rjnt_02hl8257

AAR128 RKSI-RJNT HL8257 A321-231

RJNT 090242Z 20003KT 170V260 7000 SHRASN FEW005 BKN009 BKN015 02/01 Q1013 RMK 1ST005 5CU009 7CU015 A2993

20140209_rjnt_03ja824a

20140209_rjnt_04ja824a

20140209_rjnt_05ja824a

鳩も大慌て!!!

20140209_rjnt_06ja824a

20140209_rjnt_07ja824a

ANA883 RJTT-RJNT JA824A B787-881

RJNT 090300Z 18004KT 7000 -SHRASN FEW006 BKN010 03/02 Q1013

20140209_rjnt_08hl8257

20140209_rjnt_09hl8257

20140209_rjnt_10hl8257

AAR127 RJNT-RKSI HL8257 A321-231

RJNT 090400Z VRB02KT 9999 -SHRA FEW006 SCT010 BKN015 03/01 Q1013

20140209_rjnt_11ja824a

20140209_rjnt_12ja824a

20140209_rjnt_13ja824a

ANA886 RJNT-RJTT JA824A B787-881

RJNT 090500Z 30006KT 250V350 9999 -SHRASN FEW006 SCT010 BKN015 03/00 Q1013

20140209_rjnt_14ja07an

20140209_rjnt_15ja07an

20140209_rjnt_16ja07an

ADO120 RJCC-RJNT JA07AN B737-781

RJNT 090600Z 34004KT 300V030 9999 FEW008 SCT020 BKN050 03/00 Q1013

20140209_rjnt_17ja809a

20140209_rjnt_18ja809a

20140209_rjnt_19ja809a

ANA885 RJTT-RJNT JA809A B787-881

20140209_rjnt_20ja07an

20140209_rjnt_21ja07an

ADO121 RJNT-RJTT JA07AN B737-781

20140209_rjnt_22ja809a

20140209_rjnt_23ja809a

20140209_rjnt_24ja809a

ANA888 RJNT-RJTT JA809A B787-881

RJNT 090700Z VRB02KT 9999 VCSH FEW010 SCT025 BKN050 03/00 Q1014

20140209_rjnt_25ja824a

20140209_rjnt_26ja824a

20140209_rjnt_27ja824a

ANA887 RJTT-RJNT JA824A B787-881

雪と言っても、まだまだ積雪が少ないので、河原に入れます。

           /882 can
ANA881/884 can
ANA883/886 JA824A
ANA885/888 JA809A
ANA887/890 JA824A
ANA889/892 JA817A
ANA891       JA8677

ADO120/121 JA07AN

AAR128/127 HL8257

|

« 趣味的航空路誌改訂情報 2014/2/6 thu | トップページ | 定点 富山空港 2014/2/10 mon »

富山空港」カテゴリの記事

コメント

コメントを書く



(ウェブ上には掲載しません)


コメントは記事投稿者が公開するまで表示されません。



トラックバック


この記事へのトラックバック一覧です: 定点 富山空港 2014/2/9 sun:

« 趣味的航空路誌改訂情報 2014/2/6 thu | トップページ | 定点 富山空港 2014/2/10 mon »